CST,Max TemperatureF,Mean TemperatureF,Min TemperatureF,Max Dew PointF,MeanDew PointF,Min DewpointF,Max Humidity, Mean Humidity, Min Humidity, Max Sea Level PressureIn, Mean Sea Level PressureIn, Min Sea Level PressureIn, Max VisibilityMiles, Mean VisibilityMiles, Min VisibilityMiles, Max Wind SpeedMPH, Mean Wind SpeedMPH, Max Gust SpeedMPH,PrecipitationIn, CloudCover, Events, WindDirDegrees
2013-2-1,3,-6,-14,0,-10,-18,92,77,60,30.28,30.15,30.02,10,9,2,13,6,17,0.00,4,Snow,146
2013-2-2,10,2,-5,9,0,-8,92,83,67,30.15,30.06,29.95,10,9,1,14,5,,0.00,5,Snow,308
2013-2-3,12,8,3,9,5,0,92,84,67,30.08,30.00,29.94,10,8,2,15,8,28,0.00,6,Snow,325
2013-2-4,17,8,0,18,4,-2,100,80,57,30.05,29.93,29.69,10,9,2,7,4,,0.00,5,Snow,135
2013-2-5,30,18,5,28,17,3,100,90,79,30.06,29.85,29.63,10,9,2,20,7,25,0.00,4,Snow,283
2013-2-6,26,16,6,21,15,5,100,90,79,30.06,29.96,29.87,10,8,1,16,4,,0.00,4,Snow,93
2013-2-7,28,24,17,25,22,16,100,92,74,30.27,30.12,29.99,10,8,3,15,10,20,0.00,8,,14
2013-2-8,26,17,8,25,17,7,100,89,74,30.34,30.26,30.14,10,10,7,15,5,23,0.00,5,,132
2013-2-9,33,28,24,32,28,25,100,97,93,30.14,29.99,29.87,10,6,2,15,9,22,0.00,8,,147
2013-2-10,30,29,28,30,29,27,100,99,93,29.87,29.49,29.30,10,4,0,23,13,30,0.00,8,Snow,59
2013-2-11,28,22,14,27,19,12,93,87,80,30.03,29.81,29.42,10,9,4,22,15,32,0.00,6,Snow,299
2013-2-12,30,20,10,23,18,10,100,87,69,30.02,29.88,29.79,10,10,10,9,4,,0.00,3,,232
2013-2-13,35,26,17,34,26,18,100,91,75,29.79,29.66,29.55,10,7,1,9,4,,0.00,6,Rain-Snow,266
2013-2-14,33,20,6,34,17,0,100,80,50,30.20,29.93,29.62,10,10,2,17,10,24,0.00,2,Snow,318
2013-2-15,15,8,0,7,3,0,100,82,58,30.31,30.27,30.20,10,10,7,10,8,,0.00,1,,296
2013-2-16,30,18,6,10,7,3,100,88,37,30.25,30.14,30.05,10,9,5,8,4,,0.00,6,Snow,114
2013-2-17,33,19,5,27,18,3,100,86,69,30.06,29.81,29.55,10,10,10,18,9,23,0.00,1,Snow,140
2013-2-18,33,18,3,34,15,-2,100,86,73,29.88,29.65,29.50,10,8,2,24,13,34,0.00,6,Snow,291
2013-2-19,1,-3,-7,-2,-9,-13,85,73,61,30.37,30.15,29.88,10,10,3,22,17,33,0.00,3,,310
2013-2-20,10,0,-11,0,-7,-17,84,72,57,30.43,30.40,30.35,10,10,10,8,4,,0.00,0,,11
2013-2-21,21,10,0,18,5,-6,86,75,63,30.40,30.27,30.06,10,10,4,13,6,17,0.00,1,Snow,64
2013-2-22,26,22,19,21,20,18,100,91,74,30.05,29.92,29.86,10,7,1,13,8,18,0.00,8,Snow,356
2013-2-23,26,14,3,21,16,1,100,93,80,29.94,29.87,29.84,10,8,0,8,5,,0.00,5,Fog,277
2013-2-24,30,15,0,19,10,-2,100,86,64,30.09,30.03,29.94,10,8,1,4,0,,0.00,1,,120
2013-2-25,28,22,15,25,20,16,100,92,80,30.10,30.06,30.02,10,6,0,5,0,,0.00,8,Fog,251
2013-2-26,30,22,15,28,21,14,100,93,74,30.05,29.97,29.91,10,4,0,12,3,,0.00,5,Fog-Snow,357
2013-2-27,37,27,17,25,20,16,93,78,60,30.06,29.95,29.90,10,10,10,21,10,28,0.00,0,,328
2013-2-28,28,22,17,25,21,14,93,80,69,30.23,30.16,30.07,10,10,10,13,7,,0.00,7,,354